sensor_id;sensor_type;location;lat;lon;timestamp;P1;durP1;ratioP1;P2;durP2;ratioP2
20458;SDS011;10388;52.314;7.938;2022-12-18T00:00:49;37.87;;;16.80;;
20458;SDS011;10388;52.314;7.938;2022-12-18T00:03:19;39.27;;;17.73;;
20458;SDS011;10388;52.314;7.938;2022-12-18T00:05:50;36.17;;;16.17;;
20458;SDS011;10388;52.314;7.938;2022-12-18T00:08:22;30.40;;;15.13;;
20458;SDS011;10388;52.314;7.938;2022-12-18T00:10:52;25.10;;;14.47;;
20458;SDS011;10388;52.314;7.938;2022-12-18T00:13:23;34.50;;;15.40;;
20458;SDS011;10388;52.314;7.938;2022-12-18T00:15:54;35.90;;;15.33;;
20458;SDS011;10388;52.314;7.938;2022-12-18T00:18:24;32.30;;;15.17;;
20458;SDS011;10388;52.314;7.938;2022-12-18T00:20:57;35.47;;;17.63;;
20458;SDS011;10388;52.314;7.938;2022-12-18T00:23:33;33.73;;;15.97;;
20458;SDS011;10388;52.314;7.938;2022-12-18T00:26:06;32.90;;;15.43;;
20458;SDS011;10388;52.314;7.938;2022-12-18T00:28:39;31.80;;;15.60;;
20458;SDS011;10388;52.314;7.938;2022-12-18T00:31:12;38.50;;;17.60;;
20458;SDS011;10388;52.314;7.938;2022-12-18T00:33:44;33.20;;;15.70;;
20458;SDS011;10388;52.314;7.938;2022-12-18T00:36:17;36.27;;;16.77;;
20458;SDS011;10388;52.314;7.938;2022-12-18T00:38:54;33.27;;;16.27;;
20458;SDS011;10388;52.314;7.938;2022-12-18T00:41:26;35.00;;;17.53;;
20458;SDS011;10388;52.314;7.938;2022-12-18T00:44:16;29.13;;;15.63;;
20458;SDS011;10388;52.314;7.938;2022-12-18T00:46:48;31.37;;;16.23;;
20458;SDS011;10388;52.314;7.938;2022-12-18T00:49:19;34.33;;;15.77;;
20458;SDS011;10388;52.314;7.938;2022-12-18T00:51:50;30.77;;;15.77;;
20458;SDS011;10388;52.314;7.938;2022-12-18T00:54:20;39.03;;;17.97;;
20458;SDS011;10388;52.314;7.938;2022-12-18T00:56:51;29.50;;;15.73;;
20458;SDS011;10388;52.314;7.938;2022-12-18T00:59:21;35.10;;;17.50;;
20458;SDS011;10388;52.314;7.938;2022-12-18T01:50:47;37.53;;;16.93;;
20458;SDS011;10388;52.314;7.938;2022-12-18T01:53:18;29.60;;;15.53;;
20458;SDS011;10388;52.314;7.938;2022-12-18T01:55:53;32.30;;;16.37;;
20458;SDS011;10388;52.314;7.938;2022-12-18T01:58:45;29.63;;;16.73;;
20458;SDS011;10388;52.314;7.938;2022-12-18T02:01:21;28.93;;;15.47;;
20458;SDS011;10388;52.314;7.938;2022-12-18T02:03:53;28.10;;;15.00;;
20458;SDS011;10388;52.314;7.938;2022-12-18T02:06:26;33.47;;;16.23;;
20458;SDS011;10388;52.314;7.938;2022-12-18T02:09:08;28.93;;;15.07;;
20458;SDS011;10388;52.314;7.938;2022-12-18T02:11:52;28.27;;;15.23;;
20458;SDS011;10388;52.314;7.938;2022-12-18T02:17:14;32.53;;;15.83;;
20458;SDS011;10388;52.314;7.938;2022-12-18T02:25:35;28.23;;;15.50;;
20458;SDS011;10388;52.314;7.938;2022-12-18T02:28:28;32.57;;;15.90;;
20458;SDS011;10388;52.314;7.938;2022-12-18T02:31:02;29.50;;;15.17;;
20458;SDS011;10388;52.314;7.938;2022-12-18T02:33:36;29.17;;;14.43;;
20458;SDS011;10388;52.314;7.938;2022-12-18T02:36:08;28.10;;;13.97;;
20458;SDS011;10388;52.314;7.938;2022-12-18T02:38:50;26.93;;;15.27;;
20458;SDS011;10388;52.314;7.938;2022-12-18T02:41:22;31.77;;;14.87;;
20458;SDS011;10388;52.314;7.938;2022-12-18T02:43:59;31.73;;;15.47;;
20458;SDS011;10388;52.314;7.938;2022-12-18T02:46:39;29.67;;;14.60;;
20458;SDS011;10388;52.314;7.938;2022-12-18T02:52:07;27.77;;;13.33;;
20458;SDS011;10388;52.314;7.938;2022-12-18T02:58:17;28.10;;;14.87;;
20458;SDS011;10388;52.314;7.938;2022-12-18T03:00:58;28.37;;;14.80;;
20458;SDS011;10388;52.314;7.938;2022-12-18T03:03:56;32.03;;;14.63;;
20458;SDS011;10388;52.314;7.938;2022-12-18T03:06:37;24.73;;;13.87;;
20458;SDS011;10388;52.314;7.938;2022-12-18T03:09:22;28.93;;;14.07;;
20458;SDS011;10388;52.314;7.938;2022-12-18T03:12:05;30.67;;;14.47;;
20458;SDS011;10388;52.314;7.938;2022-12-18T03:14:55;28.87;;;14.37;;
20458;SDS011;10388;52.314;7.938;2022-12-18T03:17:37;31.10;;;15.60;;
20458;SDS011;10388;52.314;7.938;2022-12-18T03:20:14;25.57;;;13.83;;
20458;SDS011;10388;52.314;7.938;2022-12-18T03:22:50;28.00;;;13.40;;
20458;SDS011;10388;52.314;7.938;2022-12-18T03:25:26;27.23;;;13.57;;
20458;SDS011;10388;52.314;7.938;2022-12-18T03:27:58;25.20;;;14.10;;
20458;SDS011;10388;52.314;7.938;2022-12-18T03:30:32;22.87;;;12.97;;
20458;SDS011;10388;52.314;7.938;2022-12-18T03:33:07;25.63;;;13.70;;
20458;SDS011;10388;52.314;7.938;2022-12-18T03:35:41;29.60;;;14.33;;
20458;SDS011;10388;52.314;7.938;2022-12-18T03:38:13;23.90;;;13.37;;
20458;SDS011;10388;52.314;7.938;2022-12-18T03:40:53;25.33;;;13.73;;
20458;SDS011;10388;52.314;7.938;2022-12-18T03:43:42;29.17;;;14.30;;
20458;SDS011;10388;52.314;7.938;2022-12-18T03:46:29;26.20;;;13.87;;
20458;SDS011;10388;52.314;7.938;2022-12-18T03:52:01;29.23;;;13.90;;
20458;SDS011;10388;52.314;7.938;2022-12-18T03:54:41;25.80;;;14.23;;
20458;SDS011;10388;52.314;7.938;2022-12-18T03:57:16;26.70;;;14.67;;
20458;SDS011;10388;52.314;7.938;2022-12-18T03:59:53;26.63;;;13.83;;
20458;SDS011;10388;52.314;7.938;2022-12-18T04:02:52;26.17;;;13.90;;
20458;SDS011;10388;52.314;7.938;2022-12-18T04:05:25;26.97;;;14.53;;
20458;SDS011;10388;52.314;7.938;2022-12-18T04:07:58;30.00;;;15.30;;
20458;SDS011;10388;52.314;7.938;2022-12-18T04:10:29;26.20;;;13.87;;
20458;SDS011;10388;52.314;7.938;2022-12-18T04:12:59;25.20;;;14.63;;
20458;SDS011;10388;52.314;7.938;2022-12-18T04:15:31;27.33;;;13.63;;
20458;SDS011;10388;52.314;7.938;2022-12-18T04:18:05;22.97;;;12.30;;
20458;SDS011;10388;52.314;7.938;2022-12-18T04:20:35;27.30;;;13.03;;
20458;SDS011;10388;52.314;7.938;2022-12-18T04:23:06;25.17;;;12.97;;
20458;SDS011;10388;52.314;7.938;2022-12-18T04:25:36;22.70;;;13.20;;
20458;SDS011;10388;52.314;7.938;2022-12-18T04:28:07;23.97;;;13.37;;
20458;SDS011;10388;52.314;7.938;2022-12-18T04:30:38;25.40;;;12.97;;
20458;SDS011;10388;52.314;7.938;2022-12-18T04:33:09;22.20;;;13.47;;
20458;SDS011;10388;52.314;7.938;2022-12-18T04:35:40;19.17;;;11.60;;
20458;SDS011;10388;52.314;7.938;2022-12-18T04:38:11;18.13;;;10.97;;
20458;SDS011;10388;52.314;7.938;2022-12-18T04:40:42;20.57;;;11.60;;
20458;SDS011;10388;52.314;7.938;2022-12-18T04:43:13;23.10;;;11.97;;
20458;SDS011;10388;52.314;7.938;2022-12-18T04:45:44;21.07;;;11.10;;
20458;SDS011;10388;52.314;7.938;2022-12-18T04:48:14;26.30;;;14.10;;
20458;SDS011;10388;52.314;7.938;2022-12-18T04:50:46;21.23;;;12.87;;
20458;SDS011;10388;52.314;7.938;2022-12-18T04:53:16;21.07;;;12.37;;
20458;SDS011;10388;52.314;7.938;2022-12-18T04:55:47;18.03;;;11.80;;
20458;SDS011;10388;52.314;7.938;2022-12-18T04:58:18;24.10;;;11.50;;
20458;SDS011;10388;52.314;7.938;2022-12-18T05:00:48;18.53;;;9.97;;
20458;SDS011;10388;52.314;7.938;2022-12-18T05:03:19;21.17;;;10.00;;
20458;SDS011;10388;52.314;7.938;2022-12-18T05:05:50;19.33;;;11.37;;
20458;SDS011;10388;52.314;7.938;2022-12-18T05:08:21;20.13;;;11.77;;
20458;SDS011;10388;52.314;7.938;2022-12-18T05:11:08;19.17;;;11.00;;
20458;SDS011;10388;52.314;7.938;2022-12-18T05:13:40;16.27;;;10.33;;
20458;SDS011;10388;52.314;7.938;2022-12-18T05:16:11;20.27;;;10.40;;
20458;SDS011;10388;52.314;7.938;2022-12-18T05:18:42;17.77;;;10.37;;
20458;SDS011;10388;52.314;7.938;2022-12-18T05:21:13;19.07;;;9.97;;
20458;SDS011;10388;52.314;7.938;2022-12-18T05:23:43;19.30;;;11.73;;
20458;SDS011;10388;52.314;7.938;2022-12-18T05:26:15;21.60;;;10.33;;
20458;SDS011;10388;52.314;7.938;2022-12-18T05:28:47;19.50;;;10.83;;
20458;SDS011;10388;52.314;7.938;2022-12-18T05:31:18;19.63;;;9.90;;
20458;SDS011;10388;52.314;7.938;2022-12-18T05:33:48;18.07;;;10.07;;
20458;SDS011;10388;52.314;7.938;2022-12-18T05:36:19;18.93;;;9.97;;
20458;SDS011;10388;52.314;7.938;2022-12-18T05:38:49;17.87;;;10.33;;
20458;SDS011;10388;52.314;7.938;2022-12-18T05:41:20;16.93;;;9.70;;
20458;SDS011;10388;52.314;7.938;2022-12-18T05:43:50;19.03;;;9.93;;
20458;SDS011;10388;52.314;7.938;2022-12-18T05:46:21;17.97;;;9.60;;
20458;SDS011;10388;52.314;7.938;2022-12-18T05:48:51;17.90;;;9.60;;
20458;SDS011;10388;52.314;7.938;2022-12-18T05:51:22;17.27;;;10.07;;
20458;SDS011;10388;52.314;7.938;2022-12-18T05:53:52;20.37;;;10.33;;
20458;SDS011;10388;52.314;7.938;2022-12-18T05:56:23;18.47;;;10.07;;
20458;SDS011;10388;52.314;7.938;2022-12-18T05:58:53;15.77;;;9.17;;
20458;SDS011;10388;52.314;7.938;2022-12-18T06:01:25;16.80;;;10.03;;
20458;SDS011;10388;52.314;7.938;2022-12-18T06:03:56;20.60;;;10.63;;
20458;SDS011;10388;52.314;7.938;2022-12-18T06:06:27;20.20;;;10.27;;
20458;SDS011;10388;52.314;7.938;2022-12-18T06:08:58;18.07;;;9.90;;
20458;SDS011;10388;52.314;7.938;2022-12-18T06:11:31;18.23;;;10.17;;
20458;SDS011;10388;52.314;7.938;2022-12-18T06:14:01;20.00;;;9.87;;
20458;SDS011;10388;52.314;7.938;2022-12-18T06:16:32;14.97;;;8.93;;
20458;SDS011;10388;52.314;7.938;2022-12-18T06:19:04;18.10;;;10.40;;
20458;SDS011;10388;52.314;7.938;2022-12-18T06:21:35;18.80;;;10.33;;
20458;SDS011;10388;52.314;7.938;2022-12-18T06:24:05;20.77;;;9.67;;
20458;SDS011;10388;52.314;7.938;2022-12-18T06:26:37;18.77;;;9.97;;
20458;SDS011;10388;52.314;7.938;2022-12-18T06:29:11;19.00;;;10.50;;
20458;SDS011;10388;52.314;7.938;2022-12-18T06:31:41;18.53;;;10.23;;
20458;SDS011;10388;52.314;7.938;2022-12-18T06:34:12;17.40;;;10.20;;
20458;SDS011;10388;52.314;7.938;2022-12-18T06:36:42;20.20;;;10.43;;
20458;SDS011;10388;52.314;7.938;2022-12-18T06:39:13;18.57;;;10.00;;
20458;SDS011;10388;52.314;7.938;2022-12-18T06:41:43;17.57;;;9.67;;
20458;SDS011;10388;52.314;7.938;2022-12-18T06:44:14;21.00;;;10.23;;
20458;SDS011;10388;52.314;7.938;2022-12-18T06:46:45;18.17;;;9.73;;
20458;SDS011;10388;52.314;7.938;2022-12-18T06:49:15;21.20;;;10.60;;
20458;SDS011;10388;52.314;7.938;2022-12-18T06:51:46;18.70;;;10.40;;
20458;SDS011;10388;52.314;7.938;2022-12-18T06:54:17;18.20;;;10.57;;
20458;SDS011;10388;52.314;7.938;2022-12-18T06:56:47;17.80;;;10.73;;
20458;SDS011;10388;52.314;7.938;2022-12-18T06:59:18;18.80;;;11.10;;
20458;SDS011;10388;52.314;7.938;2022-12-18T07:01:48;20.20;;;11.67;;
20458;SDS011;10388;52.314;7.938;2022-12-18T07:04:19;23.03;;;11.73;;
20458;SDS011;10388;52.314;7.938;2022-12-18T07:06:49;23.77;;;13.43;;
20458;SDS011;10388;52.314;7.938;2022-12-18T07:09:20;24.70;;;15.13;;
20458;SDS011;10388;52.314;7.938;2022-12-18T07:11:50;19.10;;;10.90;;
20458;SDS011;10388;52.314;7.938;2022-12-18T07:14:21;18.73;;;10.33;;
20458;SDS011;10388;52.314;7.938;2022-12-18T07:16:51;21.57;;;10.10;;
20458;SDS011;10388;52.314;7.938;2022-12-18T07:19:22;15.57;;;9.67;;
20458;SDS011;10388;52.314;7.938;2022-12-18T07:21:54;19.30;;;9.83;;
20458;SDS011;10388;52.314;7.938;2022-12-18T07:24:24;21.83;;;10.90;;
20458;SDS011;10388;52.314;7.938;2022-12-18T07:26:55;20.30;;;9.90;;
20458;SDS011;10388;52.314;7.938;2022-12-18T07:29:25;17.50;;;10.60;;
20458;SDS011;10388;52.314;7.938;2022-12-18T07:31:56;18.43;;;9.80;;
20458;SDS011;10388;52.314;7.938;2022-12-18T07:34:26;18.80;;;10.37;;
20458;SDS011;10388;52.314;7.938;2022-12-18T07:36:57;18.37;;;10.23;;
20458;SDS011;10388;52.314;7.938;2022-12-18T07:39:28;20.63;;;10.17;;
20458;SDS011;10388;52.314;7.938;2022-12-18T07:41:58;17.23;;;9.80;;
20458;SDS011;10388;52.314;7.938;2022-12-18T07:44:47;16.20;;;9.70;;
20458;SDS011;10388;52.314;7.938;2022-12-18T07:47:18;20.00;;;10.07;;
20458;SDS011;10388;52.314;7.938;2022-12-18T07:49:48;22.33;;;10.87;;
20458;SDS011;10388;52.314;7.938;2022-12-18T07:52:19;18.97;;;10.40;;
20458;SDS011;10388;52.314;7.938;2022-12-18T07:54:50;20.53;;;10.90;;
20458;SDS011;10388;52.314;7.938;2022-12-18T07:57:21;21.60;;;10.93;;
20458;SDS011;10388;52.314;7.938;2022-12-18T07:59:51;21.50;;;10.83;;
20458;SDS011;10388;52.314;7.938;2022-12-18T08:02:22;17.83;;;9.83;;
20458;SDS011;10388;52.314;7.938;2022-12-18T08:04:52;18.00;;;9.40;;
20458;SDS011;10388;52.314;7.938;2022-12-18T08:07:24;21.83;;;10.23;;
20458;SDS011;10388;52.314;7.938;2022-12-18T08:09:54;20.50;;;10.63;;
20458;SDS011;10388;52.314;7.938;2022-12-18T08:12:25;18.30;;;9.90;;
20458;SDS011;10388;52.314;7.938;2022-12-18T08:14:55;22.13;;;11.97;;
20458;SDS011;10388;52.314;7.938;2022-12-18T08:17:26;20.90;;;10.87;;
20458;SDS011;10388;52.314;7.938;2022-12-18T08:19:56;19.30;;;10.97;;
20458;SDS011;10388;52.314;7.938;2022-12-18T08:22:27;20.87;;;11.80;;
20458;SDS011;10388;52.314;7.938;2022-12-18T08:24:57;19.53;;;11.53;;
20458;SDS011;10388;52.314;7.938;2022-12-18T08:27:28;19.90;;;11.13;;
20458;SDS011;10388;52.314;7.938;2022-12-18T08:29:58;22.43;;;11.30;;
20458;SDS011;10388;52.314;7.938;2022-12-18T08:32:29;17.63;;;10.50;;
20458;SDS011;10388;52.314;7.938;2022-12-18T08:35:00;19.13;;;11.30;;
20458;SDS011;10388;52.314;7.938;2022-12-18T08:37:30;22.67;;;11.90;;
20458;SDS011;10388;52.314;7.938;2022-12-18T08:40:01;18.83;;;10.87;;
20458;SDS011;10388;52.314;7.938;2022-12-18T08:42:31;18.83;;;11.90;;
20458;SDS011;10388;52.314;7.938;2022-12-18T08:45:20;20.00;;;11.10;;
20458;SDS011;10388;52.314;7.938;2022-12-18T08:47:51;17.83;;;11.93;;
20458;SDS011;10388;52.314;7.938;2022-12-18T08:50:21;19.03;;;10.63;;
20458;SDS011;10388;52.314;7.938;2022-12-18T08:52:52;18.60;;;11.03;;
20458;SDS011;10388;52.314;7.938;2022-12-18T08:55:22;20.47;;;11.40;;
20458;SDS011;10388;52.314;7.938;2022-12-18T08:57:53;17.47;;;10.60;;
20458;SDS011;10388;52.314;7.938;2022-12-18T09:00:24;20.70;;;11.90;;
20458;SDS011;10388;52.314;7.938;2022-12-18T09:02:54;20.07;;;11.33;;
20458;SDS011;10388;52.314;7.938;2022-12-18T09:05:25;19.40;;;11.83;;
20458;SDS011;10388;52.314;7.938;2022-12-18T09:07:55;23.23;;;12.07;;
20458;SDS011;10388;52.314;7.938;2022-12-18T09:10:26;16.93;;;10.70;;
20458;SDS011;10388;52.314;7.938;2022-12-18T09:12:56;21.90;;;12.87;;
20458;SDS011;10388;52.314;7.938;2022-12-18T09:15:27;19.70;;;11.33;;
20458;SDS011;10388;52.314;7.938;2022-12-18T09:17:58;18.27;;;11.10;;
20458;SDS011;10388;52.314;7.938;2022-12-18T09:20:28;18.73;;;11.27;;
20458;SDS011;10388;52.314;7.938;2022-12-18T09:23:02;18.40;;;11.40;;
20458;SDS011;10388;52.314;7.938;2022-12-18T09:25:34;20.23;;;12.40;;
20458;SDS011;10388;52.314;7.938;2022-12-18T09:28:09;19.73;;;11.10;;
20458;SDS011;10388;52.314;7.938;2022-12-18T09:30:47;21.90;;;12.97;;
20458;SDS011;10388;52.314;7.938;2022-12-18T09:33:19;19.93;;;11.93;;
20458;SDS011;10388;52.314;7.938;2022-12-18T09:35:49;21.93;;;12.30;;
20458;SDS011;10388;52.314;7.938;2022-12-18T09:38:20;24.37;;;12.50;;
20458;SDS011;10388;52.314;7.938;2022-12-18T09:40:53;19.30;;;11.57;;
20458;SDS011;10388;52.314;7.938;2022-12-18T09:43:39;22.07;;;11.90;;
20458;SDS011;10388;52.314;7.938;2022-12-18T09:46:37;17.00;;;11.00;;
20458;SDS011;10388;52.314;7.938;2022-12-18T09:49:14;20.00;;;10.97;;
20458;SDS011;10388;52.314;7.938;2022-12-18T09:51:55;18.47;;;11.53;;
20458;SDS011;10388;52.314;7.938;2022-12-18T09:54:34;23.03;;;12.33;;
20458;SDS011;10388;52.314;7.938;2022-12-18T09:57:18;22.83;;;12.27;;
20458;SDS011;10388;52.314;7.938;2022-12-18T10:03:02;19.47;;;11.37;;
20458;SDS011;10388;52.314;7.938;2022-12-18T10:05:46;19.53;;;12.07;;
20458;SDS011;10388;52.314;7.938;2022-12-18T10:11:30;19.07;;;11.80;;
20458;SDS011;10388;52.314;7.938;2022-12-18T10:14:29;22.33;;;10.83;;
20458;SDS011;10388;52.314;7.938;2022-12-18T10:20:04;19.50;;;10.70;;
20458;SDS011;10388;52.314;7.938;2022-12-18T10:25:34;16.53;;;10.60;;
20458;SDS011;10388;52.314;7.938;2022-12-18T10:28:25;18.67;;;10.70;;
20458;SDS011;10388;52.314;7.938;2022-12-18T10:30:56;15.60;;;10.50;;
20458;SDS011;10388;52.314;7.938;2022-12-18T10:33:28;19.07;;;11.93;;
20458;SDS011;10388;52.314;7.938;2022-12-18T10:36:01;17.30;;;11.53;;
20458;SDS011;10388;52.314;7.938;2022-12-18T10:38:32;18.90;;;12.17;;
20458;SDS011;10388;52.314;7.938;2022-12-18T10:41:04;18.20;;;11.40;;
20458;SDS011;10388;52.314;7.938;2022-12-18T10:43:36;18.37;;;11.50;;
20458;SDS011;10388;52.314;7.938;2022-12-18T10:51:23;19.90;;;12.60;;
20458;SDS011;10388;52.314;7.938;2022-12-18T10:54:04;19.83;;;12.40;;
20458;SDS011;10388;52.314;7.938;2022-12-18T10:56:36;21.47;;;13.33;;
20458;SDS011;10388;52.314;7.938;2022-12-18T10:59:09;19.93;;;12.93;;
20458;SDS011;10388;52.314;7.938;2022-12-18T11:01:59;21.27;;;13.40;;
20458;SDS011;10388;52.314;7.938;2022-12-18T11:04:30;17.83;;;12.40;;
20458;SDS011;10388;52.314;7.938;2022-12-18T11:07:02;19.87;;;13.77;;
20458;SDS011;10388;52.314;7.938;2022-12-18T11:09:38;19.63;;;12.77;;
20458;SDS011;10388;52.314;7.938;2022-12-18T11:14:53;21.37;;;13.43;;
20458;SDS011;10388;52.314;7.938;2022-12-18T11:17:37;22.97;;;13.30;;
20458;SDS011;10388;52.314;7.938;2022-12-18T11:20:20;20.87;;;13.73;;
20458;SDS011;10388;52.314;7.938;2022-12-18T11:22:58;18.97;;;13.50;;
20458;SDS011;10388;52.314;7.938;2022-12-18T11:25:35;21.33;;;13.27;;
20458;SDS011;10388;52.314;7.938;2022-12-18T11:28:29;20.10;;;13.07;;
20458;SDS011;10388;52.314;7.938;2022-12-18T11:34:00;18.90;;;12.80;;
20458;SDS011;10388;52.314;7.938;2022-12-18T11:36:46;18.27;;;12.50;;
20458;SDS011;10388;52.314;7.938;2022-12-18T11:39:19;20.67;;;13.50;;
20458;SDS011;10388;52.314;7.938;2022-12-18T11:42:17;20.23;;;13.40;;
20458;SDS011;10388;52.314;7.938;2022-12-18T11:44:55;19.23;;;12.83;;
20458;SDS011;10388;52.314;7.938;2022-12-18T11:53:09;18.13;;;12.13;;
20458;SDS011;10388;52.314;7.938;2022-12-18T11:55:45;16.97;;;10.83;;
20458;SDS011;10388;52.314;7.938;2022-12-18T12:07:27;16.90;;;10.83;;
20458;SDS011;10388;52.314;7.938;2022-12-18T12:19:06;16.00;;;11.07;;
20458;SDS011;10388;52.314;7.938;2022-12-18T12:21:41;16.53;;;10.47;;
20458;SDS011;10388;52.314;7.938;2022-12-18T12:27:15;17.40;;;10.30;;
20458;SDS011;10388;52.314;7.938;2022-12-18T12:30:05;15.97;;;10.13;;
20458;SDS011;10388;52.314;7.938;2022-12-18T12:35:25;16.60;;;11.23;;
20458;SDS011;10388;52.314;7.938;2022-12-18T12:38:21;17.87;;;11.63;;
20458;SDS011;10388;52.314;7.938;2022-12-18T12:40:59;16.73;;;11.37;;
20458;SDS011;10388;52.314;7.938;2022-12-18T12:43:44;15.60;;;11.00;;
20458;SDS011;10388;52.314;7.938;2022-12-18T12:46:18;15.00;;;10.03;;
20458;SDS011;10388;52.314;7.938;2022-12-18T12:51:28;15.03;;;10.20;;
20458;SDS011;10388;52.314;7.938;2022-12-18T12:54:03;14.93;;;10.27;;
20458;SDS011;10388;52.314;7.938;2022-12-18T12:56:42;13.13;;;9.30;;
20458;SDS011;10388;52.314;7.938;2022-12-18T12:59:45;11.93;;;8.60;;
20458;SDS011;10388;52.314;7.938;2022-12-18T13:02:22;15.23;;;8.77;;
20458;SDS011;10388;52.314;7.938;2022-12-18T13:05:11;14.40;;;9.57;;
20458;SDS011;10388;52.314;7.938;2022-12-18T13:07:52;13.73;;;8.60;;
20458;SDS011;10388;52.314;7.938;2022-12-18T13:10:32;12.83;;;8.30;;
20458;SDS011;10388;52.314;7.938;2022-12-18T13:13:06;12.17;;;8.50;;
20458;SDS011;10388;52.314;7.938;2022-12-18T13:15:40;12.37;;;8.17;;
20458;SDS011;10388;52.314;7.938;2022-12-18T13:18:16;12.57;;;7.67;;
20458;SDS011;10388;52.314;7.938;2022-12-18T13:20:50;11.27;;;7.07;;
20458;SDS011;10388;52.314;7.938;2022-12-18T13:23:34;9.37;;;6.67;;
20458;SDS011;10388;52.314;7.938;2022-12-18T13:36:48;11.97;;;6.40;;
20458;SDS011;10388;52.314;7.938;2022-12-18T13:41:53;9.37;;;6.13;;
20458;SDS011;10388;52.314;7.938;2022-12-18T13:45:31;11.00;;;6.60;;
20458;SDS011;10388;52.314;7.938;2022-12-18T13:48:27;8.00;;;5.93;;
20458;SDS011;10388;52.314;7.938;2022-12-18T13:53:39;9.10;;;5.60;;
20458;SDS011;10388;52.314;7.938;2022-12-18T13:56:22;12.70;;;6.17;;
20458;SDS011;10388;52.314;7.938;2022-12-18T14:01:51;10.43;;;6.30;;
20458;SDS011;10388;52.314;7.938;2022-12-18T14:04:29;10.67;;;7.67;;
20458;SDS011;10388;52.314;7.938;2022-12-18T14:07:05;9.23;;;6.80;;
20458;SDS011;10388;52.314;7.938;2022-12-18T14:09:57;10.40;;;6.60;;
20458;SDS011;10388;52.314;7.938;2022-12-18T14:12:31;9.60;;;6.47;;
20458;SDS011;10388;52.314;7.938;2022-12-18T14:17:56;8.00;;;5.83;;
20458;SDS011;10388;52.314;7.938;2022-12-18T14:20:31;8.10;;;6.00;;
20458;SDS011;10388;52.314;7.938;2022-12-18T14:23:02;9.07;;;5.90;;
20458;SDS011;10388;52.314;7.938;2022-12-18T14:25:33;10.53;;;6.13;;
20458;SDS011;10388;52.314;7.938;2022-12-18T14:30:43;8.30;;;5.57;;
20458;SDS011;10388;52.314;7.938;2022-12-18T14:33:16;9.10;;;5.73;;
20458;SDS011;10388;52.314;7.938;2022-12-18T14:38:33;9.93;;;6.00;;
20458;SDS011;10388;52.314;7.938;2022-12-18T14:41:08;9.13;;;5.87;;
20458;SDS011;10388;52.314;7.938;2022-12-18T14:43:42;8.93;;;5.70;;
20458;SDS011;10388;52.314;7.938;2022-12-18T14:49:17;9.30;;;6.37;;
20458;SDS011;10388;52.314;7.938;2022-12-18T14:51:55;10.93;;;6.87;;
20458;SDS011;10388;52.314;7.938;2022-12-18T14:54:31;9.73;;;6.10;;
20458;SDS011;10388;52.314;7.938;2022-12-18T14:57:06;10.17;;;5.87;;
20458;SDS011;10388;52.314;7.938;2022-12-18T14:59:51;9.10;;;5.80;;
20458;SDS011;10388;52.314;7.938;2022-12-18T15:02:23;8.50;;;5.90;;
20458;SDS011;10388;52.314;7.938;2022-12-18T15:05:05;10.90;;;6.57;;
20458;SDS011;10388;52.314;7.938;2022-12-18T15:07:51;10.27;;;5.57;;
20458;SDS011;10388;52.314;7.938;2022-12-18T15:10:32;8.53;;;5.07;;
20458;SDS011;10388;52.314;7.938;2022-12-18T15:13:19;6.97;;;5.03;;
20458;SDS011;10388;52.314;7.938;2022-12-18T15:15:55;9.57;;;5.27;;
20458;SDS011;10388;52.314;7.938;2022-12-18T15:18:32;8.37;;;5.70;;
20458;SDS011;10388;52.314;7.938;2022-12-18T15:21:10;9.70;;;5.97;;
20458;SDS011;10388;52.314;7.938;2022-12-18T15:26:17;10.13;;;5.37;;
20458;SDS011;10388;52.314;7.938;2022-12-18T15:31:28;11.13;;;6.00;;
20458;SDS011;10388;52.314;7.938;2022-12-18T15:34:02;11.00;;;5.60;;
20458;SDS011;10388;52.314;7.938;2022-12-18T15:36:40;8.57;;;5.13;;
20458;SDS011;10388;52.314;7.938;2022-12-18T15:39:11;6.53;;;4.53;;
20458;SDS011;10388;52.314;7.938;2022-12-18T15:41:43;8.37;;;5.73;;
20458;SDS011;10388;52.314;7.938;2022-12-18T15:44:33;9.07;;;5.40;;
20458;SDS011;10388;52.314;7.938;2022-12-18T15:47:07;8.63;;;5.60;;
20458;SDS011;10388;52.314;7.938;2022-12-18T15:49:41;8.57;;;5.43;;
20458;SDS011;10388;52.314;7.938;2022-12-18T15:52:12;6.77;;;4.97;;
20458;SDS011;10388;52.314;7.938;2022-12-18T15:54:44;7.23;;;5.03;;
20458;SDS011;10388;52.314;7.938;2022-12-18T15:57:33;8.30;;;4.80;;
20458;SDS011;10388;52.314;7.938;2022-12-18T16:00:03;5.60;;;4.50;;
20458;SDS011;10388;52.314;7.938;2022-12-18T16:02:34;8.97;;;6.10;;
20458;SDS011;10388;52.314;7.938;2022-12-18T16:05:09;7.77;;;4.97;;
20458;SDS011;10388;52.314;7.938;2022-12-18T16:07:45;7.13;;;4.93;;
20458;SDS011;10388;52.314;7.938;2022-12-18T16:10:16;8.50;;;5.17;;
20458;SDS011;10388;52.314;7.938;2022-12-18T16:12:46;10.07;;;5.63;;
20458;SDS011;10388;52.314;7.938;2022-12-18T16:15:17;8.27;;;4.90;;
20458;SDS011;10388;52.314;7.938;2022-12-18T16:17:48;7.73;;;5.20;;
20458;SDS011;10388;52.314;7.938;2022-12-18T16:20:21;10.40;;;5.17;;
20458;SDS011;10388;52.314;7.938;2022-12-18T16:22:52;10.20;;;4.83;;
20458;SDS011;10388;52.314;7.938;2022-12-18T16:25:24;7.67;;;4.73;;
20458;SDS011;10388;52.314;7.938;2022-12-18T16:27:56;7.23;;;4.63;;
20458;SDS011;10388;52.314;7.938;2022-12-18T16:30:28;7.00;;;5.20;;
20458;SDS011;10388;52.314;7.938;2022-12-18T16:33:00;9.03;;;5.37;;
20458;SDS011;10388;52.314;7.938;2022-12-18T16:35:31;7.00;;;4.73;;
20458;SDS011;10388;52.314;7.938;2022-12-18T16:38:02;6.57;;;4.77;;
20458;SDS011;10388;52.314;7.938;2022-12-18T16:40:33;6.97;;;4.60;;
20458;SDS011;10388;52.314;7.938;2022-12-18T16:43:23;9.37;;;5.03;;
20458;SDS011;10388;52.314;7.938;2022-12-18T16:45:54;8.07;;;4.40;;
20458;SDS011;10388;52.314;7.938;2022-12-18T16:48:27;9.17;;;5.20;;
20458;SDS011;10388;52.314;7.938;2022-12-18T16:51:01;9.80;;;5.00;;
20458;SDS011;10388;52.314;7.938;2022-12-18T16:53:33;6.37;;;4.53;;
20458;SDS011;10388;52.314;7.938;2022-12-18T16:56:03;6.33;;;4.67;;
20458;SDS011;10388;52.314;7.938;2022-12-18T16:58:34;8.03;;;5.10;;
20458;SDS011;10388;52.314;7.938;2022-12-18T17:01:09;7.73;;;5.00;;
20458;SDS011;10388;52.314;7.938;2022-12-18T17:03:40;9.37;;;5.83;;
20458;SDS011;10388;52.314;7.938;2022-12-18T17:06:11;7.67;;;5.30;;
20458;SDS011;10388;52.314;7.938;2022-12-18T17:08:41;7.40;;;4.90;;
20458;SDS011;10388;52.314;7.938;2022-12-18T17:11:12;8.23;;;5.43;;
20458;SDS011;10388;52.314;7.938;2022-12-18T17:13:42;7.03;;;4.73;;
20458;SDS011;10388;52.314;7.938;2022-12-18T17:16:13;8.60;;;5.23;;
20458;SDS011;10388;52.314;7.938;2022-12-18T17:18:44;6.63;;;5.00;;
20458;SDS011;10388;52.314;7.938;2022-12-18T17:21:14;8.70;;;5.13;;
20458;SDS011;10388;52.314;7.938;2022-12-18T17:23:45;9.33;;;5.63;;
20458;SDS011;10388;52.314;7.938;2022-12-18T17:26:16;9.30;;;5.30;;
20458;SDS011;10388;52.314;7.938;2022-12-18T17:28:46;8.30;;;5.73;;
20458;SDS011;10388;52.314;7.938;2022-12-18T17:31:18;9.47;;;5.83;;
20458;SDS011;10388;52.314;7.938;2022-12-18T17:33:50;8.57;;;5.87;;
20458;SDS011;10388;52.314;7.938;2022-12-18T17:36:22;8.57;;;5.43;;
20458;SDS011;10388;52.314;7.938;2022-12-18T17:38:54;10.00;;;6.23;;
20458;SDS011;10388;52.314;7.938;2022-12-18T17:41:26;8.27;;;5.67;;
20458;SDS011;10388;52.314;7.938;2022-12-18T17:43:59;7.30;;;5.47;;
20458;SDS011;10388;52.314;7.938;2022-12-18T17:46:31;9.60;;;5.73;;
20458;SDS011;10388;52.314;7.938;2022-12-18T17:49:03;6.80;;;5.03;;